Time;durP1;ratioP1;P1;durP2;ratioP2;P2;SDS_P1;SDS_P2;PMS_P1;PMS_P2;Temp;Humidity;BMP_temperature;BMP_pressure;BME280_temperature;BME280_humidity;BME280_pressure;Samples;Min_cycle;Max_cycle;Signal;HPM_P1;HPM_P2
2023/03/07 00:00:36;;;;;;;22.30;10.37;;;3.00;99.90;;;;;;5054383;28;20049;-30
2023/03/07 00:03:01;;;;;;;23.37;12.20;;;3.70;99.90;;;;;;5053148;28;20170;-29
2023/03/07 00:05:27;;;;;;;24.43;10.10;;;2.40;99.90;;;;;;5053142;28;20044;-29
2023/03/07 00:07:53;;;;;;;18.33;9.43;;;2.60;99.90;;;;;;5054221;28;20040;-30
2023/03/07 00:10:19;;;;;;;19.23;7.20;;;2.40;99.90;;;;;;5053057;28;20202;-30
2023/03/07 00:12:45;;;;;;;18.97;6.97;;;2.40;99.90;;;;;;5054974;28;20041;-29
2023/03/07 00:15:10;;;;;;;10.80;4.50;;;3.40;99.90;;;;;;5054188;28;20533;-30
2023/03/07 00:17:37;;;;;;;13.70;4.55;;;3.30;99.90;;;;;;5053871;28;20076;-29
2023/03/07 00:20:07;;;;;;;12.23;3.88;;;2.40;99.90;;;;;;5054077;28;20491;-30
2023/03/07 00:22:33;;;;;;;10.60;3.05;;;3.20;99.90;;;;;;5054003;28;20044;-29
2023/03/07 00:24:59;;;;;;;8.15;1.83;;;2.60;99.90;;;;;;5054301;28;20396;-30
2023/03/07 00:27:25;;;;;;;10.00;2.45;;;2.30;99.90;;;;;;5053949;28;20064;-30
2023/03/07 00:29:51;;;;;;;12.00;2.00;;;3.20;99.90;;;;;;5053859;28;20044;-31
2023/03/07 00:32:17;;;;;;;10.33;2.50;;;2.90;99.90;;;;;;5052951;28;20056;-30
2023/03/07 00:34:43;;;;;;;12.07;2.58;;;2.90;99.90;;;;;;5053499;28;20422;-30
2023/03/07 00:37:08;;;;;;;16.10;2.73;;;2.10;99.90;;;;;;5054644;28;20394;-30
2023/03/07 00:39:34;;;;;;;8.70;2.10;;;3.10;99.90;;;;;;5054337;28;20360;-31
2023/03/07 00:42:00;;;;;;;10.17;1.90;;;2.10;99.90;;;;;;5053790;28;20045;-30
2023/03/07 00:44:28;;;;;;;13.50;2.05;;;2.20;99.90;;;;;;5053769;28;20049;-31
2023/03/07 00:46:55;;;;;;;13.82;1.80;;;2.20;99.90;;;;;;5053661;28;20099;-30
2023/03/07 00:49:21;;;;;;;10.47;1.83;;;3.10;99.90;;;;;;5053697;28;20083;-31
2023/03/07 00:51:47;;;;;;;8.45;1.35;;;2.50;99.90;;;;;;5053578;28;20076;-32
2023/03/07 00:54:13;;;;;;;18.38;1.65;;;3.10;99.90;;;;;;5053637;28;20084;-31
2023/03/07 00:56:39;;;;;;;10.75;2.38;;;2.60;99.90;;;;;;5053518;28;20045;-31
2023/03/07 00:59:05;;;;;;;15.77;2.75;;;2.60;99.90;;;;;;5052875;28;20049;-31
2023/03/07 01:01:31;;;;;;;12.90;2.08;;;2.40;99.90;;;;;;5053253;28;20048;-32
2023/03/07 01:03:57;;;;;;;12.40;2.83;;;2.90;99.90;;;;;;5054365;28;20041;-32
2023/03/07 01:06:25;;;;;;;9.33;1.40;;;3.10;99.90;;;;;;5036506;28;20482;-32
2023/03/07 01:08:52;;;;;;;16.20;1.83;;;3.00;99.90;;;;;;5052511;28;20538;-32
2023/03/07 01:11:18;;;;;;;12.63;2.38;;;2.30;99.90;;;;;;5053598;28;20052;-32
2023/03/07 01:13:46;;;;;;;15.50;2.75;;;2.40;99.90;;;;;;5035695;28;20045;-31
2023/03/07 01:16:27;;;;;;;10.95;1.40;;;2.50;99.90;;;;;;5053118;28;20052;-32
2023/03/07 01:18:56;;;;;;;18.73;2.00;;;2.40;99.90;;;;;;5054218;28;20049;-32
2023/03/07 01:21:30;;;;;;;10.15;1.80;;;2.50;99.90;;;;;;5053405;28;20090;-34
2023/03/07 01:23:59;;;;;;;10.82;1.48;;;2.50;99.90;;;;;;5052399;28;20052;-33
2023/03/07 01:26:28;;;;;;;10.98;2.05;;;2.50;99.90;;;;;;5054120;28;20041;-33
2023/03/07 01:28:57;;;;;;;10.07;1.48;;;2.60;99.90;;;;;;5053270;28;20045;-32
2023/03/07 01:31:23;;;;;;;8.00;1.02;;;2.50;99.90;;;;;;5053161;28;20052;-33
2023/03/07 01:33:50;;;;;;;11.57;1.92;;;2.60;99.90;;;;;;5053224;28;20067;-33
2023/03/07 01:36:18;;;;;;;7.13;0.93;;;2.50;99.90;;;;;;5053789;28;20060;-33
2023/03/07 01:38:46;;;;;;;10.27;1.15;;;2.40;99.90;;;;;;5053183;28;20084;-33
2023/03/07 01:41:12;;;;;;;5.25;0.73;;;2.50;99.90;;;;;;5051983;28;20118;-33
2023/03/07 01:43:38;;;;;;;8.93;1.10;;;2.30;99.90;;;;;;5053970;28;20049;-34
2023/03/07 01:46:16;;;;;;;7.43;0.90;;;2.20;99.90;;;;;;5052148;28;20052;-34
2023/03/07 01:48:49;;;;;;;12.03;1.70;;;2.20;99.90;;;;;;5052090;28;20127;-35
2023/03/07 01:51:15;;;;;;;7.80;1.17;;;2.00;99.90;;;;;;5051794;28;20502;-34
2023/03/07 01:53:41;;;;;;;6.80;1.20;;;2.00;99.90;;;;;;5053044;28;20072;-35
2023/03/07 01:56:07;;;;;;;7.88;1.42;;;2.00;99.90;;;;;;5053047;28;20048;-37
2023/03/07 01:58:36;;;;;;;9.82;1.15;;;2.00;99.90;;;;;;5052973;28;20048;-36
2023/03/07 02:01:03;;;;;;;7.45;1.25;;;2.00;99.90;;;;;;5052001;28;20060;-38
2023/03/07 02:03:36;;;;;;;12.80;1.60;;;2.00;99.90;;;;;;5052957;28;20045;-39
2023/03/07 02:06:07;;;;;;;9.63;0.80;;;1.90;99.90;;;;;;5052926;28;20162;-38
2023/03/07 02:08:36;;;;;;;4.82;1.02;;;1.90;99.90;;;;;;5052637;28;20090;-38
2023/03/07 02:11:01;;;;;;;8.77;2.15;;;2.00;99.90;;;;;;5056057;28;20064;-37
2023/03/07 02:13:28;;;;;;;7.90;1.17;;;1.90;99.90;;;;;;5055324;28;20071;-40
2023/03/07 02:15:55;;;;;;;8.90;1.25;;;2.00;99.90;;;;;;5056428;28;20041;-41
2023/03/07 02:18:25;;;;;;;8.00;1.85;;;2.10;99.90;;;;;;5056732;28;20080;-40
2023/03/07 02:20:57;;;;;;;6.23;1.20;;;2.20;99.90;;;;;;5038591;28;20049;-40
2023/03/07 02:23:43;;;;;;;5.20;1.42;;;2.30;99.90;;;;;;5055319;28;20139;-41
2023/03/07 02:26:27;;;;;;;6.07;0.77;;;2.20;99.90;;;;;;5056334;28;20045;-41
2023/03/07 02:28:54;;;;;;;9.37;1.37;;;2.10;99.90;;;;;;5055769;28;20049;-41
2023/03/07 02:31:20;;;;;;;8.55;1.73;;;1.90;99.90;;;;;;5056073;28;20059;-41
2023/03/07 02:33:46;;;;;;;3.83;1.00;;;1.90;99.90;;;;;;5056093;28;20052;-39
2023/03/07 02:36:17;;;;;;;7.38;1.38;;;2.00;99.90;;;;;;5056151;28;20098;-40
2023/03/07 02:38:46;;;;;;;4.80;0.90;;;2.00;99.90;;;;;;5056088;28;20048;-41
2023/03/07 02:41:19;;;;;;;5.18;0.73;;;2.10;99.90;;;;;;5055981;28;20044;-39
2023/03/07 02:43:44;;;;;;;10.38;1.17;;;2.00;99.90;;;;;;5055998;28;20044;-41
2023/03/07 02:46:10;;;;;;;8.43;1.35;;;2.10;99.90;;;;;;5056425;28;20099;-41
2023/03/07 02:48:36;;;;;;;11.60;1.55;;;1.90;99.90;;;;;;5055880;28;20045;-42
2023/03/07 02:51:02;;;;;;;6.97;1.35;;;1.90;99.90;;;;;;5055715;28;20360;-41
2023/03/07 02:53:28;;;;;;;8.93;1.00;;;1.90;99.90;;;;;;5055762;28;20072;-42
2023/03/07 02:55:53;;;;;;;9.90;1.87;;;1.90;99.90;;;;;;5055730;28;20041;-43
2023/03/07 02:58:19;;;;;;;9.80;1.70;;;2.00;99.90;;;;;;5055623;28;20376;-42
2023/03/07 03:00:45;;;;;;;6.35;1.27;;;1.80;99.90;;;;;;5055577;28;20045;-42
2023/03/07 03:03:11;;;;;;;13.40;1.67;;;1.90;99.90;;;;;;5055213;28;20091;-42
2023/03/07 03:05:36;;;;;;;7.78;0.65;;;1.90;99.90;;;;;;5055512;28;20052;-43
2023/03/07 03:08:02;;;;;;;5.43;0.70;;;2.00;99.90;;;;;;5054697;28;20056;-42
2023/03/07 03:10:28;;;;;;;6.17;1.20;;;2.00;99.90;;;;;;5055450;28;20045;-42
2023/03/07 03:12:54;;;;;;;6.57;1.95;;;2.10;99.90;;;;;;5055258;28;20392;-42
2023/03/07 03:15:20;;;;;;;7.38;1.02;;;2.30;99.90;;;;;;5054959;28;20064;-42
2023/03/07 03:17:47;;;;;;;4.65;0.55;;;2.30;99.90;;;;;;5055475;28;20606;-42
2023/03/07 03:20:13;;;;;;;5.80;1.00;;;2.30;99.90;;;;;;5053302;28;20106;-42
2023/03/07 03:22:40;;;;;;;6.20;1.17;;;2.40;99.90;;;;;;5054591;28;20513;-42
2023/03/07 03:25:08;;;;;;;2.50;0.40;;;2.30;99.90;;;;;;5053976;28;20079;-42
2023/03/07 03:27:35;;;;;;;4.60;0.63;;;2.40;99.90;;;;;;5054452;28;20037;-42
2023/03/07 03:30:01;;;;;;;6.57;1.10;;;2.30;99.90;;;;;;5055591;28;20141;-42
2023/03/07 03:32:27;;;;;;;1.90;0.40;;;2.30;99.90;;;;;;5055485;28;20041;-42
2023/03/07 03:34:53;;;;;;;5.03;0.50;;;2.20;99.90;;;;;;5054963;28;20099;-42
2023/03/07 03:37:18;;;;;;;4.18;0.52;;;2.30;99.90;;;;;;5054029;28;20438;-42
2023/03/07 03:39:44;;;;;;;7.28;1.70;;;3.00;99.90;;;;;;5053697;28;20041;-41
2023/03/07 03:42:10;;;;;;;6.72;0.80;;;2.20;99.90;;;;;;5054801;28;20484;-41
2023/03/07 03:44:36;;;;;;;6.67;0.77;;;2.20;99.90;;;;;;5055020;28;20056;-39
2023/03/07 03:47:03;;;;;;;5.83;0.93;;;2.10;99.90;;;;;;5054412;28;20479;-39
2023/03/07 03:49:28;;;;;;;11.13;1.35;;;2.20;99.90;;;;;;5054634;28;20083;-39
2023/03/07 03:51:54;;;;;;;5.90;0.77;;;2.10;99.90;;;;;;5054541;28;20108;-36
2023/03/07 03:54:20;;;;;;;4.27;0.63;;;2.10;99.90;;;;;;5054623;28;20053;-37
2023/03/07 03:56:46;;;;;;;7.40;1.07;;;2.20;99.90;;;;;;5053331;28;20391;-38
2023/03/07 03:59:11;;;;;;;9.43;1.03;;;2.30;99.90;;;;;;5053283;28;20084;-37
2023/03/07 04:01:37;;;;;;;12.15;1.38;;;2.30;99.90;;;;;;5053754;28;20102;-36
2023/03/07 04:04:03;;;;;;;5.23;0.50;;;2.20;99.90;;;;;;5054952;28;20049;-35
2023/03/07 04:06:31;;;;;;;5.20;1.92;;;2.20;99.90;;;;;;5053226;28;20052;-35
2023/03/07 04:08:58;;;;;;;5.18;0.88;;;2.20;99.90;;;;;;5054269;28;20492;-34
2023/03/07 04:11:24;;;;;;;7.03;0.80;;;2.20;99.90;;;;;;5054796;28;20110;-35
2023/03/07 04:13:50;;;;;;;10.48;0.73;;;2.10;99.90;;;;;;5054239;28;20055;-34
2023/03/07 04:16:23;;;;;;;11.07;1.07;;;2.10;99.90;;;;;;5053902;28;20457;-35
2023/03/07 04:18:49;;;;;;;8.43;0.88;;;2.10;99.90;;;;;;5055025;28;20048;-35
2023/03/07 04:21:16;;;;;;;8.97;0.97;;;2.00;99.90;;;;;;5052702;28;20523;-34
2023/03/07 04:23:42;;;;;;;6.97;1.10;;;2.00;99.90;;;;;;5054048;28;20041;-34
2023/03/07 04:26:09;;;;;;;10.93;1.23;;;1.90;99.90;;;;;;5054044;28;20143;-34
2023/03/07 04:28:45;;;;;;;9.30;0.97;;;1.90;99.90;;;;;;5054037;28;20045;-34
2023/03/07 04:31:16;;;;;;;8.70;1.15;;;2.20;99.90;;;;;;5054462;28;20044;-33
2023/03/07 04:33:42;;;;;;;8.33;1.23;;;2.00;99.90;;;;;;5053701;28;20071;-33
2023/03/07 04:36:09;;;;;;;7.53;1.67;;;2.00;99.90;;;;;;5052928;28;20368;-33
2023/03/07 04:38:37;;;;;;;6.40;0.87;;;2.10;99.90;;;;;;5053905;28;20044;-35
2023/03/07 04:41:04;;;;;;;9.05;0.95;;;2.10;99.90;;;;;;5036517;28;20044;-33
2023/03/07 04:43:30;;;;;;;10.40;1.53;;;2.10;99.90;;;;;;5053731;28;20049;-33
2023/03/07 04:45:56;;;;;;;7.15;1.23;;;2.20;99.90;;;;;;5053699;28;20056;-32
2023/03/07 04:48:22;;;;;;;12.30;1.07;;;2.20;99.90;;;;;;5052552;28;20048;-33
2023/03/07 04:50:51;;;;;;;5.47;0.90;;;2.30;99.90;;;;;;5053558;28;20095;-32
2023/03/07 04:53:18;;;;;;;8.30;1.37;;;2.20;99.90;;;;;;5053915;28;20076;-33
2023/03/07 04:55:44;;;;;;;4.18;0.70;;;2.20;99.90;;;;;;5052660;28;20087;-32
2023/03/07 04:58:11;;;;;;;6.25;1.00;;;2.30;99.90;;;;;;5052620;28;20080;-33
2023/03/07 05:00:44;;;;;;;8.85;1.27;;;2.30;99.90;;;;;;5054143;28;20049;-32
2023/03/07 05:03:12;;;;;;;6.13;1.00;;;2.50;99.90;;;;;;5054076;28;20102;-32
2023/03/07 05:05:38;;;;;;;7.20;1.80;;;2.60;99.90;;;;;;5053518;28;20041;-32
2023/03/07 05:08:04;;;;;;;7.40;1.50;;;2.60;99.90;;;;;;5053452;28;20049;-32
2023/03/07 05:10:34;;;;;;;3.58;0.98;;;2.70;99.90;;;;;;5053451;28;20049;-31
2023/03/07 05:13:00;;;;;;;13.00;1.47;;;2.60;99.90;;;;;;5053888;28;20049;-32
2023/03/07 05:15:26;;;;;;;3.30;1.07;;;2.90;99.90;;;;;;5052235;28;20053;-31
2023/03/07 05:17:52;;;;;;;3.57;0.47;;;2.40;99.90;;;;;;5053556;28;20060;-31
2023/03/07 05:20:18;;;;;;;10.23;1.60;;;2.40;99.90;;;;;;5053391;28;20049;-31
2023/03/07 05:22:44;;;;;;;11.18;1.05;;;2.40;99.90;;;;;;5053342;28;20506;-31
2023/03/07 05:25:10;;;;;;;6.40;0.87;;;2.50;99.90;;;;;;5053377;28;20049;-31
2023/03/07 05:27:36;;;;;;;4.85;0.57;;;2.50;99.90;;;;;;5053869;28;20044;-31
2023/03/07 05:30:04;;;;;;;8.00;0.75;;;2.50;99.90;;;;;;5053893;28;20048;-30
2023/03/07 05:32:30;;;;;;;9.73;1.10;;;2.40;99.90;;;;;;5052023;28;20056;-30
2023/03/07 05:34:56;;;;;;;9.83;1.87;;;2.30;99.90;;;;;;5052064;28;20045;-30
2023/03/07 05:37:22;;;;;;;6.50;0.87;;;2.20;99.90;;;;;;5053194;28;20056;-29
2023/03/07 05:39:48;;;;;;;6.75;1.48;;;2.20;99.90;;;;;;5052012;28;20045;-30
2023/03/07 05:42:14;;;;;;;8.05;0.93;;;2.30;99.90;;;;;;5035357;28;20106;-30
2023/03/07 05:44:41;;;;;;;5.13;1.00;;;2.20;99.90;;;;;;5053790;28;20406;-29
2023/03/07 05:47:07;;;;;;;9.00;1.35;;;2.30;99.90;;;;;;5057248;28;20476;-30
2023/03/07 05:49:33;;;;;;;5.25;1.42;;;2.30;99.90;;;;;;5056985;28;20045;-30
2023/03/07 05:51:59;;;;;;;12.52;1.25;;;2.30;99.90;;;;;;5056838;28;20049;-31
2023/03/07 05:54:25;;;;;;;5.05;0.95;;;2.30;99.90;;;;;;5055614;28;20052;-30
2023/03/07 05:56:51;;;;;;;4.13;0.30;;;2.20;99.90;;;;;;5056804;28;20049;-29
2023/03/07 05:59:16;;;;;;;2.78;0.50;;;2.20;99.90;;;;;;5057306;28;20047;-30
2023/03/07 06:01:42;;;;;;;6.55;0.43;;;2.20;99.90;;;;;;5055772;28;20051;-30
2023/03/07 06:04:08;;;;;;;4.87;0.83;;;2.20;99.90;;;;;;5056675;28;20044;-29
2023/03/07 06:06:35;;;;;;;4.15;0.52;;;2.20;99.90;;;;;;5057335;28;20041;-30
2023/03/07 06:09:01;;;;;;;5.20;0.70;;;2.20;99.90;;;;;;5056530;28;20127;-29
2023/03/07 06:11:27;;;;;;;6.00;1.48;;;2.10;99.90;;;;;;5038728;28;20049;-30
2023/03/07 06:13:54;;;;;;;13.13;3.90;;;2.20;99.90;;;;;;5056444;28;20129;-30
2023/03/07 06:16:20;;;;;;;11.75;3.50;;;2.10;99.90;;;;;;5054949;28;20057;-30
2023/03/07 06:18:46;;;;;;;12.38;2.10;;;2.10;99.90;;;;;;5055718;28;20494;-29
2023/03/07 06:21:15;;;;;;;7.07;1.40;;;2.10;99.90;;;;;;5056668;28;20041;-29
2023/03/07 06:23:41;;;;;;;4.32;0.55;;;2.00;99.90;;;;;;5056342;28;20406;-29
2023/03/07 06:26:07;;;;;;;11.57;2.67;;;2.10;99.90;;;;;;5055104;28;20044;-30
2023/03/07 06:28:34;;;;;;;15.23;2.35;;;2.20;99.90;;;;;;5055786;28;20194;-29
2023/03/07 06:31:00;;;;;;;9.33;1.43;;;2.10;99.90;;;;;;5056052;28;20122;-30
2023/03/07 06:33:25;;;;;;;6.45;1.00;;;2.20;99.90;;;;;;5056130;28;20044;-29
2023/03/07 06:35:51;;;;;;;9.77;1.17;;;2.20;99.90;;;;;;5056399;28;20386;-29
2023/03/07 06:38:17;;;;;;;8.87;2.13;;;2.20;99.90;;;;;;5056040;28;20572;-28
2023/03/07 06:40:43;;;;;;;7.35;1.63;;;2.20;99.90;;;;;;5054807;28;20041;-29
2023/03/07 06:43:11;;;;;;;8.05;0.98;;;2.20;99.90;;;;;;5055936;28;20045;-29
2023/03/07 06:45:37;;;;;;;6.47;0.77;;;2.20;99.90;;;;;;5055945;28;20495;-29
2023/03/07 06:48:03;;;;;;;2.87;0.73;;;2.10;99.90;;;;;;5054706;28;20048;-29
2023/03/07 06:50:29;;;;;;;5.60;0.70;;;2.10;99.90;;;;;;5056059;28;20129;-29
2023/03/07 06:52:54;;;;;;;3.83;0.37;;;2.10;99.90;;;;;;5055338;28;20533;-29
2023/03/07 06:55:20;;;;;;;4.67;0.77;;;2.00;99.90;;;;;;5054837;28;20127;-29
2023/03/07 06:57:46;;;;;;;4.23;0.40;;;2.00;99.90;;;;;;5055665;28;20045;-29
2023/03/07 07:00:12;;;;;;;2.03;0.23;;;2.00;99.90;;;;;;5055015;28;20127;-29
2023/03/07 07:02:38;;;;;;;6.63;0.87;;;2.00;99.90;;;;;;5055246;28;20045;-30
2023/03/07 07:05:04;;;;;;;2.97;0.20;;;2.00;99.90;;;;;;5054831;28;20049;-28
2023/03/07 07:07:30;;;;;;;5.13;0.40;;;2.00;99.90;;;;;;5055382;28;20509;-28
2023/03/07 07:09:56;;;;;;;5.40;0.70;;;2.00;99.90;;;;;;5054020;28;20053;-28
2023/03/07 07:12:22;;;;;;;2.20;0.40;;;2.10;99.90;;;;;;5055864;28;20049;-28
2023/03/07 07:14:48;;;;;;;5.57;0.60;;;2.10;99.90;;;;;;5054475;28;20383;-29
2023/03/07 07:17:14;;;;;;;2.83;0.63;;;2.00;99.90;;;;;;5055387;28;20096;-28
2023/03/07 07:19:40;;;;;;;0.73;0.37;;;2.00;99.90;;;;;;5055309;28;20088;-29
2023/03/07 07:22:10;;;;;;;0.80;0.30;;;2.10;99.90;;;;;;5037729;28;20099;-28
2023/03/07 07:24:39;;;;;;;3.50;0.60;;;2.10;99.90;;;;;;5055273;28;20120;-28
2023/03/07 07:27:05;;;;;;;5.23;0.30;;;2.10;99.90;;;;;;5055946;28;20117;-28
2023/03/07 07:29:31;;;;;;;4.50;0.63;;;2.10;99.90;;;;;;5055061;28;20487;-28
2023/03/07 07:31:57;;;;;;;6.53;0.53;;;2.10;99.90;;;;;;5055531;28;20044;-28
2023/03/07 07:34:23;;;;;;;6.50;1.00;;;2.20;99.90;;;;;;5054991;28;20149;-29
2023/03/07 07:36:49;;;;;;;4.50;0.28;;;2.10;99.90;;;;;;5054931;28;20045;-28
2023/03/07 07:39:16;;;;;;;3.23;0.50;;;2.10;99.90;;;;;;5055724;28;20045;-28
2023/03/07 07:41:43;;;;;;;2.93;0.60;;;2.20;99.90;;;;;;5054909;28;20048;-28
2023/03/07 07:44:09;;;;;;;3.67;0.37;;;2.20;99.90;;;;;;5054812;28;20055;-28
2023/03/07 07:46:35;;;;;;;7.33;1.23;;;2.20;99.90;;;;;;5054076;28;20132;-28
2023/03/07 07:49:01;;;;;;;7.33;1.00;;;2.30;99.90;;;;;;5053751;28;20390;-29
2023/03/07 07:51:27;;;;;;;2.53;0.53;;;2.30;99.90;;;;;;5054600;28;20048;-29
2023/03/07 07:53:52;;;;;;;7.83;1.87;;;2.30;99.90;;;;;;5053643;28;20132;-29
2023/03/07 07:56:18;;;;;;;4.43;0.63;;;2.40;99.90;;;;;;5055132;28;20088;-28
2023/03/07 07:58:44;;;;;;;7.63;0.90;;;2.40;99.90;;;;;;5054111;28;20132;-28
2023/03/07 08:01:21;;;;;;;8.83;0.90;;;2.50;99.90;;;;;;5053294;28;20040;-28
2023/03/07 08:03:48;;;;;;;4.70;0.60;;;2.50;99.90;;;;;;5054421;28;20049;-28
2023/03/07 08:06:21;;;;;;;2.93;0.33;;;2.60;99.90;;;;;;5054063;28;20055;-28
2023/03/07 08:08:47;;;;;;;5.73;1.10;;;2.60;99.90;;;;;;5054501;28;20492;-28
2023/03/07 08:11:14;;;;;;;5.23;1.00;;;2.70;99.90;;;;;;5054264;28;20123;-28
2023/03/07 08:13:40;;;;;;;7.57;0.90;;;2.80;99.90;;;;;;5054573;28;20123;-28
2023/03/07 08:16:14;;;;;;;3.05;0.50;;;2.90;99.90;;;;;;5054222;28;20479;-27
2023/03/07 08:18:41;;;;;;;12.67;1.07;;;2.80;99.90;;;;;;5054815;28;20049;-27
2023/03/07 08:21:07;;;;;;;7.80;0.93;;;2.90;99.90;;;;;;5054225;28;20088;-28
2023/03/07 08:23:34;;;;;;;5.23;0.80;;;2.80;99.90;;;;;;5054412;28;20076;-28
2023/03/07 08:26:02;;;;;;;3.47;0.50;;;2.80;99.90;;;;;;5054061;28;20053;-28
2023/03/07 08:28:27;;;;;;;4.83;0.80;;;2.80;99.90;;;;;;5053077;28;20056;-27
2023/03/07 08:30:54;;;;;;;2.47;0.60;;;2.60;99.90;;;;;;5052837;28;20048;-27
2023/03/07 08:33:20;;;;;;;8.33;0.90;;;2.50;99.90;;;;;;5053932;28;20049;-27
2023/03/07 08:35:45;;;;;;;5.60;0.80;;;2.50;99.90;;;;;;5054520;28;20581;-27
2023/03/07 08:38:11;;;;;;;5.10;0.60;;;2.50;99.90;;;;;;5054181;28;20539;-27
2023/03/07 08:40:37;;;;;;;2.70;0.50;;;2.60;99.90;;;;;;5053874;28;20399;-28
2023/03/07 08:43:02;;;;;;;7.00;0.80;;;2.60;99.90;;;;;;5052631;28;20045;-27
2023/03/07 08:45:28;;;;;;;8.23;0.97;;;2.60;99.90;;;;;;5053798;28;20045;-27
2023/03/07 08:47:55;;;;;;;2.90;0.40;;;2.60;99.90;;;;;;5053730;28;20051;-27
2023/03/07 08:50:24;;;;;;;2.90;1.03;;;2.60;99.90;;;;;;5053711;28;20053;-27
2023/03/07 08:52:50;;;;;;;3.33;0.43;;;2.60;99.90;;;;;;5054098;28;20084;-27
2023/03/07 08:55:16;;;;;;;2.80;0.60;;;2.50;99.90;;;;;;5053641;28;20045;-27
2023/03/07 08:57:44;;;;;;;4.77;0.60;;;2.50;99.90;;;;;;5052991;28;20051;-28
2023/03/07 09:00:11;;;;;;;8.67;1.23;;;2.50;99.90;;;;;;5052070;28;20410;-27
2023/03/07 09:02:37;;;;;;;4.80;0.43;;;2.50;99.90;;;;;;5036257;28;20052;-27
2023/03/07 09:05:03;;;;;;;4.83;0.73;;;2.40;99.90;;;;;;5053539;28;20045;-27
2023/03/07 09:07:29;;;;;;;5.60;1.10;;;2.40;99.90;;;;;;5053278;28;20425;-27
2023/03/07 09:09:55;;;;;;;5.57;0.70;;;2.40;99.90;;;;;;5052324;28;20048;-27
2023/03/07 09:12:21;;;;;;;3.60;0.90;;;2.40;99.90;;;;;;5053436;28;20094;-26
2023/03/07 09:14:47;;;;;;;7.30;0.90;;;2.60;99.90;;;;;;5052284;28;20510;-27
2023/03/07 09:17:13;;;;;;;5.82;0.65;;;2.40;99.90;;;;;;5053134;28;20218;-26
2023/03/07 09:19:38;;;;;;;2.70;0.33;;;2.40;99.90;;;;;;5056160;28;20471;-27
2023/03/07 09:22:04;;;;;;;2.70;0.83;;;2.30;99.90;;;;;;5057530;28;20076;-26
2023/03/07 09:24:30;;;;;;;5.87;0.40;;;2.30;99.90;;;;;;5057457;28;20407;-27
2023/03/07 09:26:56;;;;;;;10.13;0.70;;;2.20;99.90;;;;;;5057964;28;20080;-26
2023/03/07 09:29:23;;;;;;;3.70;0.50;;;2.20;99.90;;;;;;5056247;28;20056;-26
2023/03/07 09:31:49;;;;;;;5.73;0.50;;;2.30;99.90;;;;;;5057806;28;20051;-26
2023/03/07 09:34:15;;;;;;;4.80;0.80;;;2.40;99.90;;;;;;5056129;28;20057;-27
2023/03/07 09:36:41;;;;;;;3.47;0.77;;;2.40;99.90;;;;;;5057240;28;20045;-27
2023/03/07 09:39:13;;;;;;;7.00;0.63;;;2.50;99.90;;;;;;5057142;28;20071;-26
2023/03/07 09:41:41;;;;;;;4.50;1.03;;;2.40;99.90;;;;;;5057178;28;20044;-27
2023/03/07 09:44:31;;;;;;;4.27;0.43;;;2.50;99.90;;;;;;5055881;28;20487;-26
2023/03/07 09:47:36;;;;;;;3.80;0.70;;;2.50;99.90;;;;;;5057439;28;20460;-26
2023/03/07 09:50:10;;;;;;;4.50;0.70;;;2.50;99.90;;;;;;5056972;28;20052;-26
2023/03/07 09:52:37;;;;;;;;;;;2.40;99.90;;;;;;5057281;28;20041;-26
2023/03/07 09:55:08;;;;;;;5.03;1.00;;;2.30;99.90;;;;;;5055888;28;19921;-26
2023/03/07 09:57:50;;;;;;;7.70;1.08;;;2.40;99.90;;;;;;5056794;28;20472;-26
2023/03/07 10:00:41;;;;;;;6.00;0.57;;;2.60;99.90;;;;;;5057672;28;20045;-26
2023/03/07 10:03:26;;;;;;;6.20;0.93;;;2.70;99.90;;;;;;5056732;28;20041;-26
2023/03/07 10:05:56;;;;;;;2.95;0.50;;;2.80;99.90;;;;;;5056949;28;20077;-26
2023/03/07 10:08:29;;;;;;;6.28;0.73;;;2.90;99.90;;;;;;5056659;28;20049;-26
2023/03/07 10:11:05;;;;;;;2.17;0.55;;;3.00;99.90;;;;;;5057244;28;20444;-26
2023/03/07 10:13:34;;;;;;;7.03;0.98;;;3.20;99.90;;;;;;5055918;28;20095;-27
2023/03/07 10:16:06;;;;;;;4.93;0.80;;;3.30;99.90;;;;;;5055305;28;20049;-26
2023/03/07 10:18:47;;;;;;;7.72;1.13;;;3.30;99.90;;;;;;5056927;28;20056;-26
2023/03/07 10:21:35;;;;;;;2.95;0.47;;;3.60;99.90;;;;;;5038878;28;20053;-26
2023/03/07 10:24:10;;;;;;;4.80;0.60;;;3.90;99.90;;;;;;5056405;28;20045;-27
2023/03/07 10:27:05;;;;;;;4.70;0.80;;;3.90;99.90;;;;;;5055805;28;20084;-26
2023/03/07 10:29:49;;;;;;;6.90;1.08;;;4.10;99.90;;;;;;5055728;28;20056;-26
2023/03/07 10:32:43;;;;;;;6.50;0.75;;;3.90;99.90;;;;;;5056211;28;20136;-26
2023/03/07 10:35:15;;;;;;;4.57;0.80;;;3.70;99.90;;;;;;5056704;28;20050;-26
2023/03/07 10:38:09;;;;;;;6.72;0.65;;;3.80;99.90;;;;;;5054890;28;20402;-27
2023/03/07 10:40:54;;;;;;;4.75;0.90;;;3.70;99.90;;;;;;5055969;28;20057;-26
2023/03/07 10:43:31;;;;;;;3.95;0.65;;;4.10;99.90;;;;;;5056292;28;20056;-26
2023/03/07 10:46:16;;;;;;;6.68;0.73;;;4.30;99.90;;;;;;5056530;28;20060;-26
2023/03/07 10:48:47;;;;;;;6.22;0.95;;;4.90;99.90;;;;;;5056221;28;20084;-26
2023/03/07 10:51:44;;;;;;;8.18;0.80;;;4.80;99.90;;;;;;5056103;28;20049;-26
2023/03/07 10:54:23;;;;;;;8.20;0.80;;;5.00;99.90;;;;;;5056119;28;20083;-26
2023/03/07 10:57:15;;;;;;;6.13;0.80;;;5.30;99.90;;;;;;5056404;28;20049;-26
2023/03/07 10:59:43;;;;;;;5.90;0.82;;;5.40;99.90;;;;;;5055732;28;20616;-25
2023/03/07 11:02:36;;;;;;;5.38;0.60;;;5.50;99.90;;;;;;5055949;28;20498;-26
2023/03/07 11:05:18;;;;;;;7.97;0.97;;;5.40;99.90;;;;;;5055247;28;20128;-26
2023/03/07 11:07:44;;;;;;;4.88;1.25;;;5.50;99.90;;;;;;5055756;28;20274;-26
2023/03/07 11:10:30;;;;;;;6.15;1.75;;;5.40;99.90;;;;;;5055810;28;20466;-25
2023/03/07 11:12:55;;;;;;;8.23;0.98;;;5.80;99.90;;;;;;5055725;28;20045;-26
2023/03/07 11:15:23;;;;;;;6.63;1.67;;;6.30;99.90;;;;;;5054423;28;20514;-26
2023/03/07 11:17:50;;;;;;;12.23;1.98;;;6.30;99.90;;;;;;5054103;28;20132;-25
2023/03/07 11:20:46;;;;;;;7.07;0.88;;;5.60;99.90;;;;;;5054342;28;20041;-25
2023/03/07 11:23:24;;;;;;;7.75;1.13;;;4.80;99.90;;;;;;5055258;28;20051;-25
2023/03/07 11:25:51;;;;;;;2.67;0.50;;;4.10;99.90;;;;;;5055229;28;20135;-25
2023/03/07 11:28:35;;;;;;;6.03;0.95;;;3.40;99.90;;;;;;5054035;28;20060;-24
2023/03/07 11:31:13;;;;;;;5.10;0.70;;;2.90;99.90;;;;;;5054661;28;20110;-24
2023/03/07 11:33:57;;;;;;;4.68;0.60;;;2.90;99.90;;;;;;5055458;28;20048;-25
2023/03/07 11:36:30;;;;;;;7.35;1.17;;;2.70;99.90;;;;;;5055092;28;20092;-24
2023/03/07 11:39:18;;;;;;;8.52;0.90;;;2.70;99.90;;;;;;5053729;28;20080;-24
2023/03/07 11:41:54;;;;;;;4.72;0.65;;;2.70;99.90;;;;;;5054836;28;20045;-24
2023/03/07 11:44:39;;;;;;;9.10;1.20;;;2.90;99.90;;;;;;5054185;28;20521;-24
2023/03/07 11:47:05;;;;;;;5.82;0.90;;;3.70;99.90;;;;;;5054802;28;20139;-24
2023/03/07 11:50:10;;;;;;;4.78;0.40;;;4.90;99.90;;;;;;5054737;28;20103;-25
2023/03/07 11:53:01;;;;;;;7.80;0.73;;;5.70;99.90;;;;;;5054626;28;20127;-26
2023/03/07 11:55:56;;;;;;;5.25;0.50;;;6.40;99.90;;;;;;5054643;28;20044;-25
2023/03/07 11:58:54;;;;;;;7.45;0.98;;;6.80;99.90;;;;;;5054891;28;20414;-24
2023/03/07 12:01:34;;;;;;;6.60;0.60;;;7.10;99.90;;;;;;5053903;28;20052;-24
2023/03/07 12:04:18;;;;;;;11.20;1.15;;;6.80;99.90;;;;;;5054212;28;20410;-24
2023/03/07 12:07:09;;;;;;;7.03;0.80;;;6.90;99.90;;;;;;5054787;28;20122;-24
2023/03/07 12:10:00;;;;;;;3.88;0.63;;;7.10;99.90;;;;;;5054452;28;20076;-24
2023/03/07 12:12:26;;;;;;;8.23;1.52;;;7.10;99.90;;;;;;5054296;28;20040;-23
2023/03/07 12:15:20;;;;;;;7.05;0.90;;;6.70;99.90;;;;;;5054256;28;20049;-23
2023/03/07 12:17:52;;;;;;;10.93;1.50;;;6.70;99.90;;;;;;5054475;28;20060;-23
2023/03/07 12:20:36;;;;;;;5.53;0.47;;;7.40;99.90;;;;;;5054208;28;20057;-24
2023/03/07 12:23:08;;;;;;;7.57;0.90;;;7.80;99.90;;;;;;5053179;28;20060;-23
2023/03/07 12:25:59;;;;;;;6.43;0.77;;;7.20;99.90;;;;;;5054642;28;20063;-23
2023/03/07 12:28:30;;;;;;;4.28;0.80;;;6.70;99.90;;;;;;5054113;28;20052;-23
2023/03/07 12:31:31;;;;;;;7.00;1.02;;;5.90;99.90;;;;;;5053988;28;20055;-23
2023/03/07 12:34:08;;;;;;;7.97;1.00;;;5.30;99.90;;;;;;5053917;28;20049;-22
2023/03/07 12:36:59;;;;;;;5.45;0.80;;;5.10;99.90;;;;;;5053876;28;20510;-23
2023/03/07 12:39:44;;;;;;;7.00;0.80;;;5.20;99.90;;;;;;5054233;28;20110;-22
2023/03/07 12:42:25;;;;;;;10.60;1.00;;;5.40;99.90;;;;;;5053840;28;20044;-22
2023/03/07 12:45:10;;;;;;;8.65;0.50;;;6.50;99.90;;;;;;5053792;28;20057;-23
2023/03/07 12:47:55;;;;;;;4.75;0.70;;;7.60;99.90;;;;;;5053793;28;20571;-23
2023/03/07 12:50:46;;;;;;;6.35;0.80;;;7.10;99.90;;;;;;5053124;28;20060;-22
2023/03/07 12:53:21;;;;;;;11.50;1.25;;;6.10;99.90;;;;;;5052552;28;20223;-22
2023/03/07 12:56:02;;;;;;;5.28;1.23;;;5.40;99.90;;;;;;5053973;28;20052;-22
2023/03/07 12:58:52;;;;;;;6.88;0.73;;;5.40;99.90;;;;;;5053018;28;20136;-23
2023/03/07 13:01:27;;;;;;;7.50;0.98;;;6.40;99.90;;;;;;5053636;28;20103;-23
2023/03/07 13:04:21;;;;;;;7.25;0.70;;;7.00;99.90;;;;;;5054173;28;20395;-23
2023/03/07 13:06:48;;;;;;;2.85;0.70;;;6.70;99.90;;;;;;5053456;28;20098;-22
2023/03/07 13:09:24;;;;;;;5.72;0.73;;;6.50;99.90;;;;;;5052507;28;20423;-22
2023/03/07 13:12:09;;;;;;;3.42;0.38;;;6.60;99.90;;;;;;5054255;28;20044;-22